createdAt,value
2018-11-14T00:00:52.310Z,71.00
2018-11-14T00:03:19.965Z,71.30
2018-11-14T00:05:47.525Z,71.10
2018-11-14T00:08:15.045Z,71.10
2018-11-14T00:10:42.577Z,71.90
2018-11-14T00:13:10.107Z,71.20
2018-11-14T00:15:37.701Z,71.10
2018-11-14T00:18:06.138Z,70.40
2018-11-14T00:20:33.745Z,70.60
2018-11-14T00:23:01.313Z,70.10
2018-11-14T00:25:28.910Z,70.40
2018-11-14T00:27:56.497Z,70.20
2018-11-14T00:30:25.099Z,70.50
2018-11-14T00:32:52.883Z,71.00
2018-11-14T00:35:20.491Z,70.10
2018-11-14T00:37:48.472Z,71.10
2018-11-14T00:40:16.887Z,71.20
2018-11-14T00:42:45.149Z,71.00
2018-11-14T00:45:14.115Z,71.20
2018-11-14T00:47:42.709Z,71.30
2018-11-14T00:50:12.326Z,71.00
2018-11-14T00:52:40.289Z,71.10
2018-11-14T00:55:10.399Z,71.20
2018-11-14T00:57:38.074Z,71.50
2018-11-14T01:00:09.176Z,72.30
2018-11-14T01:02:37.739Z,72.30
2018-11-14T01:05:06.353Z,71.90
2018-11-14T01:07:33.861Z,72.20
2018-11-14T01:10:01.498Z,72.20
2018-11-14T01:12:29.082Z,72.20
2018-11-14T01:14:56.643Z,72.60
2018-11-14T01:17:24.204Z,73.20
2018-11-14T01:19:51.736Z,73.00
2018-11-14T01:22:19.432Z,72.90
2018-11-14T01:24:47.020Z,73.20
2018-11-14T01:27:14.552Z,72.90
2018-11-14T01:29:42.169Z,73.70
2018-11-14T01:32:09.787Z,74.30
2018-11-14T01:34:37.407Z,74.80
2018-11-14T01:37:05.481Z,75.60
2018-11-14T01:39:33.002Z,75.10
2018-11-14T01:42:00.517Z,75.30
2018-11-14T01:44:28.006Z,75.20
2018-11-14T01:46:55.514Z,74.80
2018-11-14T01:49:22.995Z,75.00
2018-11-14T01:51:50.608Z,75.10
2018-11-14T01:54:18.188Z,75.40
2018-11-14T01:56:45.708Z,75.80
2018-11-14T01:59:13.226Z,75.70
2018-11-14T02:01:40.825Z,76.00
2018-11-14T02:04:08.425Z,76.10
2018-11-14T02:06:36.024Z,77.10
2018-11-14T02:09:04.817Z,77.80
2018-11-14T02:11:32.329Z,78.10
2018-11-14T02:13:59.904Z,78.90
2018-11-14T02:16:27.471Z,79.30
2018-11-14T02:18:54.963Z,79.20
2018-11-14T02:21:22.515Z,79.20
2018-11-14T02:23:50.177Z,79.10
2018-11-14T02:26:17.780Z,79.50
2018-11-14T02:28:45.305Z,80.10
2018-11-14T02:31:12.876Z,79.80
2018-11-14T02:33:40.438Z,80.50
2018-11-14T02:36:07.938Z,80.30
2018-11-14T02:38:35.573Z,80.20
2018-11-14T02:41:03.137Z,80.30
2018-11-14T02:43:30.662Z,80.50
2018-11-14T02:45:58.209Z,79.90
2018-11-14T02:48:25.750Z,80.30
2018-11-14T02:51:04.726Z,80.80
2018-11-14T02:53:32.265Z,81.30
2018-11-14T02:56:08.361Z,82.00
2018-11-14T02:58:35.875Z,82.50
2018-11-14T03:01:03.444Z,81.80
2018-11-14T03:03:31.055Z,82.60
2018-11-14T03:05:58.612Z,82.00
2018-11-14T03:08:26.207Z,82.40
2018-11-14T03:10:53.802Z,82.10
2018-11-14T03:13:21.421Z,82.30
2018-11-14T03:15:48.980Z,81.80
2018-11-14T03:18:16.525Z,82.10
2018-11-14T03:20:44.053Z,82.70
2018-11-14T03:23:11.673Z,81.60
2018-11-14T03:25:39.287Z,81.90
2018-11-14T03:28:06.834Z,82.50
2018-11-14T03:30:34.353Z,82.90
2018-11-14T03:33:01.961Z,82.30
2018-11-14T03:35:35.264Z,82.50
2018-11-14T03:38:02.883Z,82.50
2018-11-14T03:40:30.438Z,82.40
2018-11-14T03:42:58.005Z,82.20
2018-11-14T03:45:25.529Z,82.40
2018-11-14T03:47:53.134Z,82.20
2018-11-14T03:50:20.689Z,81.30
2018-11-14T03:52:48.187Z,80.80
2018-11-14T03:55:15.816Z,81.40
2018-11-14T03:57:43.350Z,80.90
2018-11-14T04:00:13.455Z,80.90
2018-11-14T04:02:41.322Z,80.50
2018-11-14T04:05:09.230Z,80.80
2018-11-14T04:07:36.805Z,81.10
2018-11-14T04:10:05.835Z,81.00
2018-11-14T04:12:33.425Z,80.70
2018-11-14T04:15:01.122Z,80.80
2018-11-14T04:17:28.699Z,81.10
2018-11-14T04:19:56.223Z,81.10
2018-11-14T04:22:23.768Z,81.00
2018-11-14T04:24:51.353Z,80.80
2018-11-14T04:27:18.931Z,80.10
2018-11-14T04:29:46.440Z,80.40
2018-11-14T04:32:14.079Z,79.80
2018-11-14T04:34:41.677Z,79.70
2018-11-14T04:37:10.345Z,79.40
2018-11-14T04:39:37.935Z,79.70
2018-11-14T04:42:05.454Z,79.70
2018-11-14T04:44:33.063Z,79.90
2018-11-14T04:47:00.616Z,79.70
2018-11-14T04:49:28.173Z,80.10
2018-11-14T04:51:55.705Z,80.40
2018-11-14T04:54:23.300Z,79.70
2018-11-14T04:56:50.893Z,80.30
2018-11-14T04:59:18.505Z,79.80
2018-11-14T05:01:46.025Z,79.50
2018-11-14T05:04:13.556Z,80.30
2018-11-14T05:06:41.186Z,80.80
2018-11-14T05:09:10.477Z,81.20
2018-11-14T05:11:38.019Z,80.80
2018-11-14T05:14:06.302Z,81.30
2018-11-14T05:16:33.937Z,82.10
2018-11-14T05:19:01.726Z,82.30
2018-11-14T05:21:29.359Z,81.50
2018-11-14T05:23:57.043Z,82.70
2018-11-14T05:26:24.679Z,82.30
2018-11-14T05:28:52.265Z,81.80
2018-11-14T05:31:19.907Z,81.40
2018-11-14T05:33:47.605Z,81.80
2018-11-14T05:36:15.283Z,81.00
2018-11-14T05:38:42.888Z,80.90
2018-11-14T05:41:10.639Z,80.60
2018-11-14T05:43:38.394Z,81.40
2018-11-14T05:46:18.995Z,81.30
2018-11-14T05:49:05.038Z,80.70
2018-11-14T05:51:32.629Z,80.90
2018-11-14T05:54:01.016Z,80.80
2018-11-14T05:56:28.695Z,80.90
2018-11-14T05:58:56.331Z,80.80
2018-11-14T06:01:23.918Z,80.60
2018-11-14T06:03:51.457Z,80.60
2018-11-14T06:06:19.069Z,80.60
2018-11-14T06:08:46.684Z,81.10
2018-11-14T06:11:14.274Z,81.00
2018-11-14T06:13:41.937Z,80.60
2018-11-14T06:16:09.464Z,80.20
2018-11-14T06:18:37.050Z,80.90
2018-11-14T06:21:05.108Z,81.00
2018-11-14T06:23:32.805Z,80.40
2018-11-14T06:26:00.356Z,80.80
2018-11-14T06:28:28.102Z,81.40
2018-11-14T06:30:55.651Z,81.60
2018-11-14T06:33:23.278Z,81.30
2018-11-14T06:35:50.840Z,81.80
2018-11-14T06:38:18.441Z,82.00
2018-11-14T06:40:46.114Z,81.30
2018-11-14T06:43:13.689Z,82.30
2018-11-14T06:45:42.414Z,82.20
2018-11-14T06:48:10.195Z,82.30
2018-11-14T06:50:37.712Z,82.60
2018-11-14T06:53:06.184Z,82.50
2018-11-14T06:55:33.917Z,82.70
2018-11-14T06:58:01.778Z,82.70
2018-11-14T07:00:32.185Z,83.30
2018-11-14T07:03:00.823Z,83.10
2018-11-14T07:05:28.583Z,83.70
2018-11-14T07:07:56.159Z,82.70
2018-11-14T07:10:28.159Z,83.00
2018-11-14T07:13:01.512Z,83.00
2018-11-14T07:15:29.058Z,83.10
2018-11-14T07:17:56.739Z,83.40
2018-11-14T07:20:25.725Z,83.20
2018-11-14T07:22:53.229Z,83.50
2018-11-14T07:25:20.861Z,83.60
2018-11-14T07:27:48.413Z,83.70
2018-11-14T07:30:18.759Z,83.60
2018-11-14T07:32:47.691Z,83.70
2018-11-14T07:35:15.859Z,83.70
2018-11-14T07:37:48.039Z,84.70
2018-11-14T07:40:15.563Z,85.20
2018-11-14T07:42:43.157Z,84.30
2018-11-14T07:45:12.478Z,84.40
2018-11-14T07:47:40.052Z,85.00
2018-11-14T07:50:10.925Z,85.10
2018-11-14T07:52:38.461Z,84.50
2018-11-14T07:55:07.348Z,84.30
2018-11-14T07:57:35.369Z,83.80
2018-11-14T08:00:03.529Z,84.20
2018-11-14T08:02:31.146Z,82.60
2018-11-14T08:04:58.735Z,83.00
2018-11-14T08:07:26.395Z,83.00
2018-11-14T08:09:53.899Z,83.30
2018-11-14T08:12:21.488Z,83.60
2018-11-14T08:14:49.116Z,83.50
2018-11-14T08:17:16.669Z,83.30
2018-11-14T08:19:44.273Z,82.90
2018-11-14T08:22:11.819Z,83.60
2018-11-14T08:24:39.318Z,83.90
2018-11-14T08:27:07.112Z,83.50
2018-11-14T08:29:34.746Z,83.80
2018-11-14T08:32:02.255Z,83.90
2018-11-14T08:34:29.773Z,84.10
2018-11-14T08:36:57.354Z,84.60
2018-11-14T08:39:24.967Z,84.40
2018-11-14T08:41:52.623Z,84.10
2018-11-14T08:44:20.231Z,83.60
2018-11-14T08:46:47.826Z,83.60
2018-11-14T08:49:15.425Z,83.70
2018-11-14T08:51:43.076Z,83.60
2018-11-14T08:54:10.633Z,83.50
2018-11-14T08:56:38.272Z,82.90
2018-11-14T08:59:05.925Z,82.80
2018-11-14T09:01:33.443Z,82.80
2018-11-14T09:04:00.994Z,82.80
2018-11-14T09:06:28.585Z,83.90
2018-11-14T09:08:56.156Z,84.40
2018-11-14T09:11:24.025Z,84.10
2018-11-14T09:13:51.553Z,84.00
2018-11-14T09:16:19.139Z,84.50
2018-11-14T09:18:46.822Z,84.80
2018-11-14T09:21:14.364Z,84.00
2018-11-14T09:23:41.937Z,83.90
2018-11-14T09:26:09.461Z,84.40
2018-11-14T09:28:37.004Z,85.10
2018-11-14T09:31:04.714Z,85.10
2018-11-14T09:33:32.266Z,85.10
2018-11-14T09:35:59.895Z,84.80
2018-11-14T09:38:27.439Z,84.90
2018-11-14T09:40:55.098Z,85.80
2018-11-14T09:43:22.535Z,85.10
2018-11-14T09:45:50.085Z,85.60
2018-11-14T09:48:17.722Z,85.20
2018-11-14T09:50:45.282Z,85.70
2018-11-14T09:53:12.885Z,85.40
2018-11-14T09:55:40.525Z,85.50
2018-11-14T09:58:08.089Z,85.80
2018-11-14T10:00:35.730Z,86.40
2018-11-14T10:03:14.329Z,85.90
2018-11-14T10:05:41.924Z,86.10
2018-11-14T10:08:09.661Z,86.40
2018-11-14T10:10:37.433Z,86.40
2018-11-14T10:14:34.860Z,86.00
2018-11-14T10:17:02.502Z,86.20
2018-11-14T10:19:30.076Z,85.90
2018-11-14T10:21:57.700Z,86.40
2018-11-14T10:24:26.394Z,86.70
2018-11-14T10:26:54.002Z,86.40
2018-11-14T10:29:21.612Z,86.30
2018-11-14T10:31:53.219Z,86.40
2018-11-14T10:34:20.864Z,86.30
2018-11-14T10:36:48.810Z,86.40
2018-11-14T10:39:16.394Z,86.80
2018-11-14T10:41:44.099Z,86.50
2018-11-14T10:44:11.751Z,86.50
2018-11-14T10:46:39.362Z,86.60
2018-11-14T10:49:06.965Z,86.10
2018-11-14T10:51:34.594Z,85.70
2018-11-14T10:56:25.003Z,86.30
2018-11-14T10:58:52.526Z,85.90
2018-11-14T11:01:25.955Z,86.70
2018-11-14T11:03:59.219Z,86.60
2018-11-14T11:06:37.718Z,86.40
2018-11-14T11:09:13.954Z,86.80
2018-11-14T11:11:48.305Z,85.90
2018-11-14T11:14:22.785Z,86.00
2018-11-14T11:16:56.067Z,86.50
2018-11-14T11:19:26.377Z,85.40
2018-11-14T11:21:53.961Z,85.00
2018-11-14T11:24:22.301Z,86.30
2018-11-14T11:26:55.266Z,85.20
2018-11-14T11:29:22.916Z,85.70
2018-11-14T11:31:50.773Z,85.50
2018-11-14T11:34:18.491Z,86.30
2018-11-14T11:36:46.149Z,85.80
2018-11-14T11:39:15.615Z,85.70
2018-11-14T11:41:43.966Z,85.60
2018-11-14T11:44:11.634Z,86.00
2018-11-14T11:46:40.285Z,85.90
2018-11-14T11:49:08.659Z,85.70
2018-11-14T11:51:36.485Z,85.90
2018-11-14T11:54:05.341Z,86.00
2018-11-14T11:56:32.955Z,86.20
2018-11-14T11:59:01.698Z,86.80
2018-11-14T12:01:34.536Z,86.30
2018-11-14T12:04:03.501Z,86.20
2018-11-14T12:06:32.323Z,86.40
2018-11-14T12:08:59.933Z,86.60
2018-11-14T12:11:27.551Z,86.80
2018-11-14T12:13:55.260Z,86.40
2018-11-14T12:16:22.874Z,86.60
2018-11-14T12:21:56.890Z,86.90
2018-11-14T12:24:24.584Z,86.80
2018-11-14T12:26:52.283Z,86.80
2018-11-14T12:29:19.889Z,86.70
2018-11-14T12:31:47.589Z,86.60
2018-11-14T12:34:15.197Z,86.70
2018-11-14T12:36:42.899Z,87.10
2018-11-14T12:39:10.665Z,87.30
2018-11-14T12:41:38.274Z,86.90
2018-11-14T12:44:20.386Z,87.10
2018-11-14T12:46:48.267Z,86.90
2018-11-14T12:49:16.065Z,86.80
2018-11-14T12:51:43.729Z,86.70
2018-11-14T12:54:11.377Z,87.60
2018-11-14T12:56:38.941Z,87.40
2018-11-14T12:59:06.572Z,87.80
2018-11-14T13:01:34.206Z,88.10
2018-11-14T13:04:01.810Z,87.50
2018-11-14T13:06:29.478Z,87.20
2018-11-14T13:08:59.994Z,86.90
2018-11-14T13:11:27.679Z,86.90
2018-11-14T13:13:55.539Z,87.50
2018-11-14T13:16:23.232Z,87.50
2018-11-14T13:18:50.954Z,87.40
2018-11-14T13:21:18.587Z,87.10
2018-11-14T13:23:46.281Z,86.90
2018-11-14T13:28:48.253Z,87.00
2018-11-14T13:31:15.877Z,86.70
2018-11-14T13:33:43.431Z,86.70
2018-11-14T13:36:21.971Z,86.60
2018-11-14T13:38:49.555Z,86.70
2018-11-14T13:41:17.194Z,86.80
2018-11-14T13:43:44.986Z,86.60
2018-11-14T13:46:12.884Z,86.70
2018-11-14T13:48:40.582Z,86.80
2018-11-14T13:51:08.479Z,86.70
2018-11-14T13:53:35.990Z,86.40
2018-11-14T13:56:03.735Z,86.10
2018-11-14T13:58:32.419Z,85.80
2018-11-14T14:01:05.638Z,86.20
2018-11-14T14:03:33.424Z,86.40
2018-11-14T14:06:01.031Z,86.30
2018-11-14T14:08:28.722Z,86.50
2018-11-14T14:10:56.541Z,86.80
2018-11-14T14:13:24.255Z,86.80
2018-11-14T14:15:51.885Z,86.70
2018-11-14T14:18:19.592Z,86.80
2018-11-14T14:20:48.978Z,87.10
2018-11-14T14:23:16.594Z,86.70
2018-11-14T14:25:44.367Z,86.30
2018-11-14T14:28:12.154Z,86.40
2018-11-14T14:30:39.983Z,86.60
2018-11-14T14:33:07.584Z,86.30
2018-11-14T14:35:35.263Z,86.50
2018-11-14T14:38:03.036Z,85.80
2018-11-14T14:40:30.577Z,86.20
2018-11-14T14:42:58.255Z,86.20
2018-11-14T14:45:26.624Z,86.40
2018-11-14T14:47:54.254Z,86.60
2018-11-14T14:50:21.869Z,86.90
2018-11-14T14:52:49.525Z,87.40
2018-11-14T14:55:20.237Z,87.30
2018-11-14T14:57:48.479Z,87.40
2018-11-14T15:00:19.329Z,88.40
2018-11-14T15:02:47.973Z,88.20
2018-11-14T15:05:15.672Z,87.80
2018-11-14T15:07:43.362Z,87.70
2018-11-14T15:10:13.501Z,87.50
2018-11-14T15:12:41.240Z,87.40
2018-11-14T15:15:08.945Z,88.10
2018-11-14T15:17:36.733Z,88.10
2018-11-14T15:20:08.243Z,88.20
2018-11-14T15:22:35.899Z,87.70
2018-11-14T15:25:05.034Z,87.70
2018-11-14T15:27:32.674Z,87.70
2018-11-14T15:30:01.167Z,87.80
2018-11-14T15:32:28.893Z,88.00
2018-11-14T15:34:56.638Z,87.80
2018-11-14T15:37:24.357Z,87.90
2018-11-14T15:39:52.011Z,88.00
2018-11-14T15:42:19.590Z,88.00
2018-11-14T15:44:47.100Z,88.00
2018-11-14T15:47:19.752Z,88.10
2018-11-14T15:49:48.037Z,88.20
2018-11-14T15:52:15.879Z,88.40
2018-11-14T15:54:43.536Z,88.40
2018-11-14T15:57:11.285Z,88.50
2018-11-14T15:59:41.176Z,88.30
2018-11-14T16:02:08.878Z,88.20
2018-11-14T16:04:36.537Z,88.30
2018-11-14T16:07:04.681Z,88.30
2018-11-14T16:09:32.376Z,88.70
2018-11-14T16:12:00.127Z,88.50
2018-11-14T16:14:27.818Z,88.60
2018-11-14T16:16:55.473Z,88.50
2018-11-14T16:19:23.427Z,88.90
2018-11-14T16:21:51.202Z,88.90
2018-11-14T16:24:18.836Z,88.70
2018-11-14T16:26:46.417Z,88.60
2018-11-14T16:29:14.039Z,88.70
2018-11-14T16:31:41.717Z,88.40
2018-11-14T16:34:09.376Z,88.20
2018-11-14T16:36:37.022Z,88.10
2018-11-14T16:39:08.277Z,88.30
2018-11-14T16:41:35.819Z,88.40
2018-11-14T16:44:03.897Z,88.10
2018-11-14T16:46:31.612Z,88.20
2018-11-14T16:48:59.628Z,88.30
2018-11-14T16:51:28.502Z,88.10
2018-11-14T16:53:57.649Z,88.00
2018-11-14T16:56:26.698Z,87.60
2018-11-14T16:58:54.312Z,87.80
2018-11-14T17:01:22.059Z,87.80
2018-11-14T17:03:50.643Z,88.00
2018-11-14T17:06:18.399Z,88.20
2018-11-14T17:08:46.524Z,88.00
2018-11-14T17:11:14.327Z,87.90
2018-11-14T17:13:43.819Z,87.70
2018-11-14T17:16:11.584Z,87.60
2018-11-14T17:18:39.251Z,87.50
2018-11-14T17:21:06.911Z,87.60
2018-11-14T17:23:34.501Z,87.60
2018-11-14T17:26:02.166Z,87.60
2018-11-14T17:28:29.818Z,87.80
2018-11-14T17:30:57.540Z,87.50
2018-11-14T17:33:25.209Z,87.70
2018-11-14T17:35:52.855Z,87.50
2018-11-14T17:38:20.429Z,87.40
2018-11-14T17:40:48.110Z,87.80
2018-11-14T17:43:15.732Z,87.50
2018-11-14T17:45:44.239Z,87.30
2018-11-14T17:48:12.148Z,87.30
2018-11-14T17:50:39.884Z,86.90
2018-11-14T17:53:07.321Z,87.10
2018-11-14T17:55:34.950Z,86.90
2018-11-14T17:58:02.476Z,86.90
2018-11-14T18:00:30.773Z,86.90
2018-11-14T18:02:58.427Z,86.90
2018-11-14T18:05:27.484Z,87.10
2018-11-14T18:07:55.398Z,87.10
2018-11-14T18:10:24.377Z,87.30
2018-11-14T18:12:53.019Z,87.20
2018-11-14T18:15:20.623Z,87.10
2018-11-14T18:17:49.195Z,87.10
2018-11-14T18:20:18.208Z,87.10
2018-11-14T18:22:46.361Z,86.80
2018-11-14T18:25:14.286Z,86.70
2018-11-14T18:27:42.321Z,86.80
2018-11-14T18:30:14.673Z,86.20
2018-11-14T18:32:42.340Z,86.50
2018-11-14T18:35:14.037Z,85.80
2018-11-14T18:37:42.375Z,85.70
2018-11-14T18:40:12.540Z,86.00
2018-11-14T18:42:48.901Z,86.00
2018-11-14T18:45:20.752Z,86.20
2018-11-14T18:47:48.591Z,86.20
2018-11-14T18:50:16.995Z,86.10
2018-11-14T18:52:45.457Z,86.30
2018-11-14T18:55:14.615Z,86.10
2018-11-14T18:57:42.498Z,85.80
2018-11-14T19:00:16.585Z,85.30
2018-11-14T19:02:44.229Z,85.00
2018-11-14T19:05:12.456Z,85.50
2018-11-14T19:07:40.750Z,85.40
2018-11-14T19:10:10.318Z,85.80
2018-11-14T19:12:38.507Z,86.20
2018-11-14T19:15:09.248Z,86.30
2018-11-14T19:17:37.102Z,86.30
2018-11-14T19:20:05.884Z,86.80
2018-11-14T19:22:33.539Z,86.60
2018-11-14T19:25:01.203Z,87.00
2018-11-14T19:27:28.862Z,87.00
2018-11-14T19:29:56.474Z,86.80
2018-11-14T19:32:24.278Z,86.90
2018-11-14T19:34:51.877Z,87.00
2018-11-14T19:37:19.548Z,87.20
2018-11-14T19:39:50.173Z,86.90
2018-11-14T19:42:17.773Z,86.90
2018-11-14T19:44:45.407Z,87.00
2018-11-14T19:47:13.016Z,86.70
2018-11-14T19:49:40.636Z,86.90
2018-11-14T19:52:08.279Z,87.00
2018-11-14T19:54:40.454Z,86.70
2018-11-14T19:57:08.840Z,86.40
2018-11-14T19:59:37.089Z,86.40
2018-11-14T20:02:05.335Z,86.30
2018-11-14T20:04:33.326Z,86.00
2018-11-14T20:07:32.081Z,86.00
2018-11-14T20:10:01.945Z,86.30
2018-11-14T20:12:30.187Z,86.30
2018-11-14T20:14:58.456Z,86.40
2018-11-14T20:17:26.881Z,86.20
2018-11-14T20:22:50.795Z,86.30
2018-11-14T20:25:18.407Z,86.10
2018-11-14T20:27:47.877Z,86.10
2018-11-14T20:30:20.431Z,85.70
2018-11-14T20:32:49.456Z,86.00
2018-11-14T20:35:18.418Z,85.80
2018-11-14T20:37:46.159Z,85.90
2018-11-14T20:40:15.229Z,85.80
2018-11-14T20:42:43.168Z,85.70
2018-11-14T20:45:13.181Z,85.60
2018-11-14T20:47:40.887Z,85.60
2018-11-14T20:50:11.181Z,85.40
2018-11-14T20:52:38.905Z,85.50
2018-11-14T20:55:07.755Z,85.30
2018-11-14T20:57:35.956Z,85.50
2018-11-14T21:00:04.140Z,85.80
2018-11-14T21:02:31.757Z,85.90
2018-11-14T21:04:59.347Z,86.10
2018-11-14T21:07:27.015Z,86.20
2018-11-14T21:09:54.705Z,86.10
2018-11-14T21:12:22.209Z,86.90
2018-11-14T21:14:49.912Z,86.30
2018-11-14T21:17:17.490Z,86.60
2018-11-14T21:19:45.169Z,86.90
2018-11-14T21:22:13.806Z,86.70
2018-11-14T21:24:41.498Z,86.50
2018-11-14T21:27:09.284Z,86.60
2018-11-14T21:29:36.816Z,86.60
2018-11-14T21:32:04.953Z,86.30
2018-11-14T21:34:32.614Z,86.30
2018-11-14T21:37:00.199Z,86.30
2018-11-14T21:39:27.734Z,86.30
2018-11-14T21:41:55.344Z,86.30
2018-11-14T21:44:22.998Z,86.30
2018-11-14T21:46:50.642Z,86.20
2018-11-14T21:49:23.801Z,86.00
2018-11-14T21:51:51.354Z,86.20
2018-11-14T21:54:19.658Z,86.00
2018-11-14T21:56:47.286Z,85.90
2018-11-14T21:59:14.815Z,85.90
2018-11-14T22:01:42.772Z,85.90
2018-11-14T22:04:10.471Z,86.00
2018-11-14T22:06:37.983Z,86.70
2018-11-14T22:09:07.964Z,86.10
2018-11-14T22:11:35.600Z,86.00
2018-11-14T22:14:03.261Z,86.30
2018-11-14T22:16:30.791Z,86.20
2018-11-14T22:18:58.393Z,86.10
2018-11-14T22:21:25.990Z,85.90
2018-11-14T22:23:53.590Z,86.20
2018-11-14T22:26:21.183Z,85.90
2018-11-14T22:28:48.762Z,85.70
2018-11-14T22:31:16.340Z,85.70
2018-11-14T22:33:43.958Z,85.70
2018-11-14T22:36:11.461Z,85.50
2018-11-14T22:38:39.024Z,85.50
2018-11-14T22:41:06.585Z,85.50
2018-11-14T22:43:34.206Z,85.50
2018-11-14T22:46:01.862Z,85.80
2018-11-14T22:48:29.477Z,85.50
2018-11-14T22:50:57.130Z,85.20
2018-11-14T22:53:24.700Z,85.40
2018-11-14T22:55:52.301Z,85.40
2018-11-14T22:58:19.917Z,85.30
2018-11-14T23:00:47.496Z,85.40
2018-11-14T23:03:15.298Z,85.00
2018-11-14T23:05:42.849Z,85.00
2018-11-14T23:08:10.425Z,85.50
2018-11-14T23:10:37.982Z,85.40
2018-11-14T23:13:05.659Z,85.30
2018-11-14T23:15:33.209Z,85.10
2018-11-14T23:18:00.808Z,85.00
2018-11-14T23:20:28.445Z,85.10
2018-11-14T23:22:56.370Z,85.10
2018-11-14T23:25:24.065Z,84.70
2018-11-14T23:27:52.993Z,84.90
2018-11-14T23:30:21.737Z,85.10
2018-11-14T23:32:50.495Z,85.10
2018-11-14T23:35:23.314Z,85.00
2018-11-14T23:37:53.091Z,85.20
2018-11-14T23:40:20.833Z,85.30
2018-11-14T23:42:48.955Z,85.40
2018-11-14T23:45:17.406Z,85.30
2018-11-14T23:47:45.587Z,85.30
2018-11-14T23:50:14.481Z,85.40
2018-11-14T23:52:43.352Z,85.70
2018-11-14T23:55:11.013Z,85.70
2018-11-14T23:57:39.002Z,85.40
